Current Conditions
Clear
Conditions



Pressure
30.17 (inHG) - 1021.72 (mb)
Visibility

9.9 (miles) - 16.0 (km)
   Temperature
66  °F
19°C
61  °F
Dewpoint
83  %
 Humidity
   Wind Speed
5  mph
4  kts
8  km/h
2.2  m/s
   Wind Direction
 360°
Due North
   Airport Data
KICL
Location Schenck Field 22 mi (35.4 km)
Metar :KICL 020155Z AUTO 36004KT 10SM CLR 19/16 A3017 RMK AO2
Sun 1st August 20:55 pm
   Raw Metar Info
Raw METAR is the most common format in the world for the transmission of observational weather data. It is highly standardized through the International Civil Aviation Organization (ICAO), which allows it to be understood throughout most of the world.
   API Info
Data Provided by
https://www.checkwx.com/weather/KICL
   © Info
CSS/SVG/PHP scripts were developed by weather34.com for use in the weather34 template © 2015-2021

Guide Info provided by Metar-Wikipedia